sensor_id;sensor_type;location;lat;lon;timestamp;pressure;altitude;pressure_sealevel;temperature;humidity
53340;BME280;46212;50.258;19.062;2022-12-07T00:01:07;98043.22;;;1.34;100.00
53340;BME280;46212;50.258;19.062;2022-12-07T00:03:33;98034.69;;;1.32;100.00
53340;BME280;46212;50.258;19.062;2022-12-07T00:05:59;98038.81;;;1.14;100.00
53340;BME280;46212;50.258;19.062;2022-12-07T00:08:25;98023.50;;;0.93;100.00
53340;BME280;46212;50.258;19.062;2022-12-07T00:10:50;98046.63;;;1.08;100.00
53340;BME280;46212;50.258;19.062;2022-12-07T00:13:15;98045.91;;;1.04;100.00
53340;BME280;46212;50.258;19.062;2022-12-07T00:15:41;98036.06;;;0.80;100.00
53340;BME280;46212;50.258;19.062;2022-12-07T00:18:06;98049.56;;;0.90;100.00
53340;BME280;46212;50.258;19.062;2022-12-07T00:20:32;98040.94;;;0.95;100.00
53340;BME280;46212;50.258;19.062;2022-12-07T00:22:58;98032.56;;;1.17;100.00
53340;BME280;46212;50.258;19.062;2022-12-07T00:25:23;98032.28;;;1.08;100.00
53340;BME280;46212;50.258;19.062;2022-12-07T00:27:49;98031.78;;;1.16;100.00
53340;BME280;46212;50.258;19.062;2022-12-07T00:30:14;98037.38;;;1.02;100.00
53340;BME280;46212;50.258;19.062;2022-12-07T00:32:40;98026.97;;;0.97;100.00
53340;BME280;46212;50.258;19.062;2022-12-07T00:35:05;98035.47;;;1.33;100.00
53340;BME280;46212;50.258;19.062;2022-12-07T00:37:31;98032.19;;;1.15;100.00
53340;BME280;46212;50.258;19.062;2022-12-07T00:39:56;98026.97;;;0.97;100.00
53340;BME280;46212;50.258;19.062;2022-12-07T00:42:22;98010.56;;;1.04;100.00
53340;BME280;46212;50.258;19.062;2022-12-07T00:44:47;98034.19;;;1.11;100.00
53340;BME280;46212;50.258;19.062;2022-12-07T00:47:12;98025.13;;;1.21;100.00
53340;BME280;46212;50.258;19.062;2022-12-07T00:49:38;98022.50;;;0.80;100.00
53340;BME280;46212;50.258;19.062;2022-12-07T00:52:03;98019.16;;;0.99;100.00
53340;BME280;46212;50.258;19.062;2022-12-07T00:54:29;98029.22;;;1.02;100.00
53340;BME280;46212;50.258;19.062;2022-12-07T00:56:54;98017.56;;;1.35;100.00
53340;BME280;46212;50.258;19.062;2022-12-07T00:59:19;98017.97;;;1.03;100.00
53340;BME280;46212;50.258;19.062;2022-12-07T01:01:45;98021.03;;;1.05;100.00
53340;BME280;46212;50.258;19.062;2022-12-07T01:04:10;98020.25;;;1.05;100.00
53340;BME280;46212;50.258;19.062;2022-12-07T01:06:35;98006.59;;;1.12;100.00
53340;BME280;46212;50.258;19.062;2022-12-07T01:09:02;98014.22;;;0.90;100.00
53340;BME280;46212;50.258;19.062;2022-12-07T01:11:30;98009.31;;;0.78;100.00
53340;BME280;46212;50.258;19.062;2022-12-07T01:13:57;98019.16;;;0.99;100.00
53340;BME280;46212;50.258;19.062;2022-12-07T01:16:24;98009.44;;;1.01;100.00
53340;BME280;46212;50.258;19.062;2022-12-07T01:18:52;98008.22;;;1.06;100.00
53340;BME280;46212;50.258;19.062;2022-12-07T01:21:29;98008.97;;;1.37;100.00
53340;BME280;46212;50.258;19.062;2022-12-07T01:23:57;97998.97;;;1.30;100.00
53340;BME280;46212;50.258;19.062;2022-12-07T01:26:24;98000.00;;;1.10;100.00
53340;BME280;46212;50.258;19.062;2022-12-07T01:28:49;97993.44;;;1.37;100.00
53340;BME280;46212;50.258;19.062;2022-12-07T01:31:18;98007.81;;;1.38;100.00
53340;BME280;46212;50.258;19.062;2022-12-07T01:33:47;97980.34;;;1.29;100.00
53340;BME280;46212;50.258;19.062;2022-12-07T01:36:17;97992.16;;;1.45;100.00
53340;BME280;46212;50.258;19.062;2022-12-07T01:38:44;97992.31;;;1.35;100.00
53340;BME280;46212;50.258;19.062;2022-12-07T01:41:10;97977.34;;;1.20;100.00
53340;BME280;46212;50.258;19.062;2022-12-07T01:43:36;97994.47;;;1.47;100.00
53340;BME280;46212;50.258;19.062;2022-12-07T01:46:03;97985.81;;;1.25;100.00
53340;BME280;46212;50.258;19.062;2022-12-07T01:48:38;97999.16;;;1.16;100.00
53340;BME280;46212;50.258;19.062;2022-12-07T01:51:09;97995.06;;;1.31;100.00
53340;BME280;46212;50.258;19.062;2022-12-07T01:53:38;97978.47;;;1.22;100.00
53340;BME280;46212;50.258;19.062;2022-12-07T01:56:06;97985.56;;;1.16;100.00
53340;BME280;46212;50.258;19.062;2022-12-07T01:58:33;97976.50;;;1.26;100.00
53340;BME280;46212;50.258;19.062;2022-12-07T02:00:59;97994.72;;;1.56;100.00
53340;BME280;46212;50.258;19.062;2022-12-07T02:03:37;97989.31;;;1.26;100.00
53340;BME280;46212;50.258;19.062;2022-12-07T02:06:05;97987.25;;;1.33;100.00
53340;BME280;46212;50.258;19.062;2022-12-07T02:08:31;97993.59;;;1.27;100.00
53340;BME280;46212;50.258;19.062;2022-12-07T02:10:56;97995.94;;;1.25;100.00
53340;BME280;46212;50.258;19.062;2022-12-07T02:13:25;97971.91;;;1.20;100.00
53340;BME280;46212;50.258;19.062;2022-12-07T02:16:06;97986.88;;;1.35;100.00
53340;BME280;46212;50.258;19.062;2022-12-07T02:24:31;97988.47;;;1.32;100.00
53340;BME280;46212;50.258;19.062;2022-12-07T02:35:06;97988.03;;;1.34;100.00
53340;BME280;46212;50.258;19.062;2022-12-07T02:37:41;97984.91;;;1.35;100.00
53340;BME280;46212;50.258;19.062;2022-12-07T02:42:57;97989.22;;;1.33;100.00
53340;BME280;46212;50.258;19.062;2022-12-07T02:45:25;97980.31;;;1.32;100.00
53340;BME280;46212;50.258;19.062;2022-12-07T02:47:55;97982.72;;;1.27;100.00
53340;BME280;46212;50.258;19.062;2022-12-07T02:50:23;97983.53;;;1.24;100.00
53340;BME280;46212;50.258;19.062;2022-12-07T02:52:49;97974.09;;;1.32;100.00
53340;BME280;46212;50.258;19.062;2022-12-07T02:55:17;97952.03;;;1.26;100.00
53340;BME280;46212;50.258;19.062;2022-12-07T03:00:19;97957.91;;;1.21;100.00
53340;BME280;46212;50.258;19.062;2022-12-07T03:02:56;97976.81;;;1.32;100.00
53340;BME280;46212;50.258;19.062;2022-12-07T03:16:22;97965.03;;;1.65;100.00
53340;BME280;46212;50.258;19.062;2022-12-07T03:18:59;97962.13;;;1.52;100.00
53340;BME280;46212;50.258;19.062;2022-12-07T03:21:33;97947.13;;;1.41;100.00
53340;BME280;46212;50.258;19.062;2022-12-07T03:24:03;97945.78;;;1.52;100.00
53340;BME280;46212;50.258;19.062;2022-12-07T03:26:34;97962.63;;;1.44;100.00
53340;BME280;46212;50.258;19.062;2022-12-07T03:29:05;97949.81;;;1.44;100.00
53340;BME280;46212;50.258;19.062;2022-12-07T03:31:33;97966.00;;;1.55;100.00
53340;BME280;46212;50.258;19.062;2022-12-07T03:34:24;97950.63;;;1.41;100.00
53340;BME280;46212;50.258;19.062;2022-12-07T03:36:56;97959.47;;;1.49;100.00
53340;BME280;46212;50.258;19.062;2022-12-07T03:39:29;97953.19;;;1.25;100.00
53340;BME280;46212;50.258;19.062;2022-12-07T03:41:59;97964.78;;;1.29;100.00
53340;BME280;46212;50.258;19.062;2022-12-07T03:44:27;97962.44;;;1.31;100.00
53340;BME280;46212;50.258;19.062;2022-12-07T03:49:37;97950.75;;;1.04;100.00
53340;BME280;46212;50.258;19.062;2022-12-07T03:52:35;97966.75;;;1.29;100.00
53340;BME280;46212;50.258;19.062;2022-12-07T03:57:47;97952.09;;;1.46;100.00
53340;BME280;46212;50.258;19.062;2022-12-07T04:00:14;97927.22;;;1.21;100.00
53340;BME280;46212;50.258;19.062;2022-12-07T04:02:40;97947.53;;;1.13;100.00
53340;BME280;46212;50.258;19.062;2022-12-07T04:05:06;97952.41;;;1.25;100.00
53340;BME280;46212;50.258;19.062;2022-12-07T04:07:32;97955.44;;;1.30;100.00
53340;BME280;46212;50.258;19.062;2022-12-07T04:09:57;97955.88;;;1.29;100.00
53340;BME280;46212;50.258;19.062;2022-12-07T04:12:23;97954.19;;;1.08;100.00
53340;BME280;46212;50.258;19.062;2022-12-07T04:14:49;97958.91;;;1.04;100.00
53340;BME280;46212;50.258;19.062;2022-12-07T04:17:14;97952.75;;;1.00;100.00
53340;BME280;46212;50.258;19.062;2022-12-07T04:19:40;97953.56;;;0.97;100.00
53340;BME280;46212;50.258;19.062;2022-12-07T04:22:05;97940.78;;;0.94;100.00
53340;BME280;46212;50.258;19.062;2022-12-07T04:24:32;97951.81;;;1.14;100.00
53340;BME280;46212;50.258;19.062;2022-12-07T04:26:58;97939.06;;;1.07;100.00
53340;BME280;46212;50.258;19.062;2022-12-07T04:29:24;97933.25;;;1.05;100.00
53340;BME280;46212;50.258;19.062;2022-12-07T04:31:50;97936.09;;;1.25;100.00
53340;BME280;46212;50.258;19.062;2022-12-07T04:34:16;97951.69;;;1.21;100.00
53340;BME280;46212;50.258;19.062;2022-12-07T04:36:41;97962.34;;;1.08;100.00
53340;BME280;46212;50.258;19.062;2022-12-07T04:39:09;97951.84;;;1.10;100.00
53340;BME280;46212;50.258;19.062;2022-12-07T04:41:38;97958.75;;;1.15;100.00
53340;BME280;46212;50.258;19.062;2022-12-07T04:44:04;97959.41;;;1.26;100.00
53340;BME280;46212;50.258;19.062;2022-12-07T04:46:33;97948.25;;;1.43;100.00
53340;BME280;46212;50.258;19.062;2022-12-07T04:48:58;97947.22;;;1.07;100.00
53340;BME280;46212;50.258;19.062;2022-12-07T04:51:27;97956.00;;;1.18;100.00
53340;BME280;46212;50.258;19.062;2022-12-07T04:53:53;97948.75;;;1.08;100.00
53340;BME280;46212;50.258;19.062;2022-12-07T04:56:19;97952.88;;;1.20;100.00
53340;BME280;46212;50.258;19.062;2022-12-07T04:58:45;97953.19;;;1.25;100.00
53340;BME280;46212;50.258;19.062;2022-12-07T05:01:11;97962.00;;;1.06;100.00
53340;BME280;46212;50.258;19.062;2022-12-07T05:03:37;97960.09;;;1.03;100.00
53340;BME280;46212;50.258;19.062;2022-12-07T05:06:03;97945.97;;;1.12;100.00
53340;BME280;46212;50.258;19.062;2022-12-07T05:08:29;97967.25;;;1.20;100.00
53340;BME280;46212;50.258;19.062;2022-12-07T05:10:54;97959.06;;;1.24;100.00
53340;BME280;46212;50.258;19.062;2022-12-07T05:13:20;97959.44;;;1.22;100.00
53340;BME280;46212;50.258;19.062;2022-12-07T05:15:47;97954.78;;;1.23;100.00
53340;BME280;46212;50.258;19.062;2022-12-07T05:18:12;97963.34;;;1.21;100.00
53340;BME280;46212;50.258;19.062;2022-12-07T05:20:39;97952.47;;;1.21;100.00
53340;BME280;46212;50.258;19.062;2022-12-07T05:23:05;97927.28;;;1.17;100.00
53340;BME280;46212;50.258;19.062;2022-12-07T05:25:30;97965.72;;;1.19;100.00
53340;BME280;46212;50.258;19.062;2022-12-07T05:27:56;97970.59;;;1.31;100.00
53340;BME280;46212;50.258;19.062;2022-12-07T05:30:25;97971.97;;;1.16;100.00
53340;BME280;46212;50.258;19.062;2022-12-07T05:32:50;97966.00;;;1.25;100.00
53340;BME280;46212;50.258;19.062;2022-12-07T05:35:16;97953.00;;;1.09;100.00
53340;BME280;46212;50.258;19.062;2022-12-07T05:37:42;97953.78;;;1.10;100.00
53340;BME280;46212;50.258;19.062;2022-12-07T05:40:08;97955.19;;;1.21;100.00
53340;BME280;46212;50.258;19.062;2022-12-07T05:42:33;97948.34;;;1.10;100.00
53340;BME280;46212;50.258;19.062;2022-12-07T05:44:59;97952.50;;;1.18;100.00
53340;BME280;46212;50.258;19.062;2022-12-07T05:47:24;97961.22;;;1.05;100.00
53340;BME280;46212;50.258;19.062;2022-12-07T05:49:49;97939.69;;;1.18;100.00
53340;BME280;46212;50.258;19.062;2022-12-07T05:52:15;97971.41;;;1.28;100.00
53340;BME280;46212;50.258;19.062;2022-12-07T05:54:40;97969.31;;;1.39;99.82
53340;BME280;46212;50.258;19.062;2022-12-07T05:57:06;97961.53;;;1.11;100.00
53340;BME280;46212;50.258;19.062;2022-12-07T05:59:31;97954.66;;;1.03;100.00
53340;BME280;46212;50.258;19.062;2022-12-07T06:02:02;97958.66;;;0.95;100.00
53340;BME280;46212;50.258;19.062;2022-12-07T06:04:32;97937.38;;;0.86;100.00
53340;BME280;46212;50.258;19.062;2022-12-07T06:06:58;97966.16;;;0.84;100.00
53340;BME280;46212;50.258;19.062;2022-12-07T06:09:25;97960.97;;;0.93;100.00
53340;BME280;46212;50.258;19.062;2022-12-07T06:11:51;97970.41;;;0.85;100.00
53340;BME280;46212;50.258;19.062;2022-12-07T06:14:35;97958.00;;;0.84;100.00
53340;BME280;46212;50.258;19.062;2022-12-07T06:17:01;97955.22;;;0.87;100.00
53340;BME280;46212;50.258;19.062;2022-12-07T06:19:27;97968.50;;;0.82;100.00
53340;BME280;46212;50.258;19.062;2022-12-07T06:21:52;97941.38;;;0.78;100.00
53340;BME280;46212;50.258;19.062;2022-12-07T06:24:18;97957.72;;;0.75;100.00
53340;BME280;46212;50.258;19.062;2022-12-07T06:26:44;97975.47;;;0.83;100.00
53340;BME280;46212;50.258;19.062;2022-12-07T06:29:10;97985.25;;;0.77;100.00
53340;BME280;46212;50.258;19.062;2022-12-07T06:31:36;97981.41;;;0.74;100.00
53340;BME280;46212;50.258;19.062;2022-12-07T06:34:05;97983.44;;;1.00;100.00
53340;BME280;46212;50.258;19.062;2022-12-07T06:36:31;97976.91;;;0.94;100.00
53340;BME280;46212;50.258;19.062;2022-12-07T06:38:56;97980.44;;;0.91;100.00
53340;BME280;46212;50.258;19.062;2022-12-07T06:41:22;97973.22;;;1.08;100.00
53340;BME280;46212;50.258;19.062;2022-12-07T06:43:47;97986.28;;;1.20;100.00
53340;BME280;46212;50.258;19.062;2022-12-07T06:46:14;97990.66;;;1.14;100.00
53340;BME280;46212;50.258;19.062;2022-12-07T06:48:41;97993.13;;;1.01;100.00
53340;BME280;46212;50.258;19.062;2022-12-07T06:51:07;97975.78;;;0.92;100.00
53340;BME280;46212;50.258;19.062;2022-12-07T06:53:32;97997.41;;;0.99;100.00
53340;BME280;46212;50.258;19.062;2022-12-07T06:55:58;98002.47;;;1.00;100.00
53340;BME280;46212;50.258;19.062;2022-12-07T06:58:23;97976.66;;;1.12;100.00
53340;BME280;46212;50.258;19.062;2022-12-07T07:00:49;97992.03;;;1.26;100.00
53340;BME280;46212;50.258;19.062;2022-12-07T07:03:17;98001.53;;;1.14;100.00
53340;BME280;46212;50.258;19.062;2022-12-07T07:05:43;97984.91;;;0.75;100.00
53340;BME280;46212;50.258;19.062;2022-12-07T07:08:10;98006.41;;;0.92;100.00
53340;BME280;46212;50.258;19.062;2022-12-07T07:10:35;97996.84;;;0.81;100.00
53340;BME280;46212;50.258;19.062;2022-12-07T07:13:01;97990.16;;;0.89;100.00
53340;BME280;46212;50.258;19.062;2022-12-07T07:15:26;97996.41;;;0.86;100.00
53340;BME280;46212;50.258;19.062;2022-12-07T07:17:52;97999.63;;;0.77;100.00
53340;BME280;46212;50.258;19.062;2022-12-07T07:20:17;97983.34;;;0.74;100.00
53340;BME280;46212;50.258;19.062;2022-12-07T07:22:43;97979.63;;;0.94;100.00
53340;BME280;46212;50.258;19.062;2022-12-07T07:25:08;97987.22;;;1.06;100.00
53340;BME280;46212;50.258;19.062;2022-12-07T07:27:34;97987.84;;;0.87;100.00
53340;BME280;46212;50.258;19.062;2022-12-07T07:29:59;97999.00;;;0.96;100.00
53340;BME280;46212;50.258;19.062;2022-12-07T07:32:24;97988.00;;;0.73;100.00
53340;BME280;46212;50.258;19.062;2022-12-07T07:34:50;97988.09;;;0.66;100.00
53340;BME280;46212;50.258;19.062;2022-12-07T07:37:15;98002.41;;;1.04;100.00
53340;BME280;46212;50.258;19.062;2022-12-07T07:39:41;97996.47;;;1.13;100.00
53340;BME280;46212;50.258;19.062;2022-12-07T07:42:06;98007.22;;;1.23;100.00
53340;BME280;46212;50.258;19.062;2022-12-07T07:44:35;97994.00;;;1.25;100.00
53340;BME280;46212;50.258;19.062;2022-12-07T07:47:01;97993.09;;;1.35;99.98
53340;BME280;46212;50.258;19.062;2022-12-07T07:49:27;98010.44;;;1.45;99.74
53340;BME280;46212;50.258;19.062;2022-12-07T07:51:52;98005.13;;;1.34;100.00
53340;BME280;46212;50.258;19.062;2022-12-07T07:54:17;98005.94;;;1.31;100.00
53340;BME280;46212;50.258;19.062;2022-12-07T07:56:43;98009.94;;;1.53;100.00
53340;BME280;46212;50.258;19.062;2022-12-07T07:59:08;97988.84;;;1.31;100.00
53340;BME280;46212;50.258;19.062;2022-12-07T08:01:34;97989.66;;;1.28;100.00
53340;BME280;46212;50.258;19.062;2022-12-07T08:03:59;98001.38;;;1.55;100.00
53340;BME280;46212;50.258;19.062;2022-12-07T08:06:25;98000.69;;;1.47;100.00
53340;BME280;46212;50.258;19.062;2022-12-07T08:08:50;98006.75;;;1.58;100.00
53340;BME280;46212;50.258;19.062;2022-12-07T08:11:16;98009.41;;;1.62;99.57
53340;BME280;46212;50.258;19.062;2022-12-07T08:13:41;97994.16;;;1.11;99.90
53340;BME280;46212;50.258;19.062;2022-12-07T08:16:09;98010.44;;;1.45;100.00
53340;BME280;46212;50.258;19.062;2022-12-07T08:18:36;98015.56;;;1.39;100.00
53340;BME280;46212;50.258;19.062;2022-12-07T08:21:02;98014.50;;;1.60;100.00
53340;BME280;46212;50.258;19.062;2022-12-07T08:23:29;98001.88;;;1.73;99.53
53340;BME280;46212;50.258;19.062;2022-12-07T08:25:54;98017.09;;;1.94;98.93
53340;BME280;46212;50.258;19.062;2022-12-07T08:28:20;98023.91;;;1.82;98.14
53340;BME280;46212;50.258;19.062;2022-12-07T08:30:46;98023.13;;;1.82;98.48
53340;BME280;46212;50.258;19.062;2022-12-07T08:33:11;98029.03;;;1.77;98.38
53340;BME280;46212;50.258;19.062;2022-12-07T08:35:37;98020.53;;;1.44;99.93
53340;BME280;46212;50.258;19.062;2022-12-07T08:38:02;98018.22;;;1.43;100.00
53340;BME280;46212;50.258;19.062;2022-12-07T08:40:28;98033.91;;;1.62;100.00
53340;BME280;46212;50.258;19.062;2022-12-07T08:42:54;98021.66;;;1.47;100.00
53340;BME280;46212;50.258;19.062;2022-12-07T08:45:20;98015.19;;;1.68;100.00
53340;BME280;46212;50.258;19.062;2022-12-07T08:47:54;98020.69;;;1.87;99.07
53340;BME280;46212;50.258;19.062;2022-12-07T08:50:21;98023.75;;;1.66;98.68
53340;BME280;46212;50.258;19.062;2022-12-07T08:52:50;98039.06;;;1.83;100.00
53340;BME280;46212;50.258;19.062;2022-12-07T08:55:18;98049.22;;;2.06;98.99
53340;BME280;46212;50.258;19.062;2022-12-07T08:57:44;98041.66;;;1.90;98.42
53340;BME280;46212;50.258;19.062;2022-12-07T09:00:10;98026.41;;;1.70;98.89
53340;BME280;46212;50.258;19.062;2022-12-07T09:02:35;98044.59;;;2.03;98.39
53340;BME280;46212;50.258;19.062;2022-12-07T09:05:01;98031.34;;;1.51;99.01
53340;BME280;46212;50.258;19.062;2022-12-07T09:07:27;98023.44;;;1.60;99.79
53340;BME280;46212;50.258;19.062;2022-12-07T09:09:53;98033.75;;;1.99;98.84
53340;BME280;46212;50.258;19.062;2022-12-07T09:12:18;98043.06;;;1.75;99.35
53340;BME280;46212;50.258;19.062;2022-12-07T09:14:43;98018.66;;;1.95;99.15
53340;BME280;46212;50.258;19.062;2022-12-07T09:17:10;97992.50;;;2.01;98.18
53340;BME280;46212;50.258;19.062;2022-12-07T09:19:36;98027.50;;;2.02;98.10
53340;BME280;46212;50.258;19.062;2022-12-07T09:22:03;98032.94;;;1.76;99.35
53340;BME280;46212;50.258;19.062;2022-12-07T09:24:29;98020.31;;;1.89;99.75
53340;BME280;46212;50.258;19.062;2022-12-07T09:26:55;98020.59;;;1.94;100.00
53340;BME280;46212;50.258;19.062;2022-12-07T09:29:20;98019.53;;;1.88;100.00
53340;BME280;46212;50.258;19.062;2022-12-07T09:31:46;98012.56;;;2.10;100.00
53340;BME280;46212;50.258;19.062;2022-12-07T09:34:11;98008.97;;;2.17;100.00
53340;BME280;46212;50.258;19.062;2022-12-07T09:36:36;98006.94;;;2.44;99.63
53340;BME280;46212;50.258;19.062;2022-12-07T09:39:02;97993.72;;;2.43;98.27
53340;BME280;46212;50.258;19.062;2022-12-07T09:41:30;97997.56;;;2.68;96.75
53340;BME280;46212;50.258;19.062;2022-12-07T09:44:03;97980.16;;;2.39;97.10
53340;BME280;46212;50.258;19.062;2022-12-07T09:46:34;97997.44;;;2.52;97.29
53340;BME280;46212;50.258;19.062;2022-12-07T09:49:01;97983.47;;;2.50;97.45
53340;BME280;46212;50.258;19.062;2022-12-07T09:51:26;97988.94;;;2.50;96.79
53340;BME280;46212;50.258;19.062;2022-12-07T09:53:54;97964.84;;;2.26;97.11
53340;BME280;46212;50.258;19.062;2022-12-07T09:56:20;97982.56;;;2.37;98.24
53340;BME280;46212;50.258;19.062;2022-12-07T09:58:48;97990.00;;;2.56;98.08
53340;BME280;46212;50.258;19.062;2022-12-07T10:01:19;97984.19;;;2.74;97.32
53340;BME280;46212;50.258;19.062;2022-12-07T10:03:50;97973.75;;;2.49;96.72
53340;BME280;46212;50.258;19.062;2022-12-07T10:06:16;97968.31;;;2.49;98.04
53340;BME280;46212;50.258;19.062;2022-12-07T10:08:42;97965.69;;;2.65;98.34
53340;BME280;46212;50.258;19.062;2022-12-07T10:11:09;97958.31;;;3.02;96.59
53340;BME280;46212;50.258;19.062;2022-12-07T10:16:01;97942.66;;;3.06;96.43
53340;BME280;46212;50.258;19.062;2022-12-07T10:18:40;97952.25;;;3.30;94.67
53340;BME280;46212;50.258;19.062;2022-12-07T10:23:58;97960.25;;;3.21;94.35
53340;BME280;46212;50.258;19.062;2022-12-07T10:29:16;97941.47;;;3.07;93.81
53340;BME280;46212;50.258;19.062;2022-12-07T10:31:43;97919.75;;;3.19;94.30
53340;BME280;46212;50.258;19.062;2022-12-07T10:34:28;97921.78;;;3.15;94.87
53340;BME280;46212;50.258;19.062;2022-12-07T10:42:25;97936.09;;;4.04;91.39
53340;BME280;46212;50.258;19.062;2022-12-07T10:45:13;97937.28;;;4.19;89.63
53340;BME280;46212;50.258;19.062;2022-12-07T10:50:17;97930.88;;;4.25;87.75
53340;BME280;46212;50.258;19.062;2022-12-07T10:55:23;97936.81;;;4.53;85.98
53340;BME280;46212;50.258;19.062;2022-12-07T10:58:01;97937.78;;;4.30;86.85
53340;BME280;46212;50.258;19.062;2022-12-07T11:00:51;97932.88;;;4.09;88.66
53340;BME280;46212;50.258;19.062;2022-12-07T11:11:16;97905.91;;;3.95;87.61
53340;BME280;46212;50.258;19.062;2022-12-07T11:17:02;97920.41;;;3.75;87.74
53340;BME280;46212;50.258;19.062;2022-12-07T11:20:01;97918.97;;;3.55;88.44
53340;BME280;46212;50.258;19.062;2022-12-07T11:28:52;97912.94;;;3.28;90.27
53340;BME280;46212;50.258;19.062;2022-12-07T11:31:28;97900.66;;;3.19;89.63
53340;BME280;46212;50.258;19.062;2022-12-07T11:37:02;97878.78;;;3.39;89.83
53340;BME280;46212;50.258;19.062;2022-12-07T11:39:41;97897.03;;;3.42;89.72
53340;BME280;46212;50.258;19.062;2022-12-07T11:42:22;97897.53;;;3.01;90.08
53340;BME280;46212;50.258;19.062;2022-12-07T11:47:51;97888.31;;;3.31;91.85
53340;BME280;46212;50.258;19.062;2022-12-07T11:50:41;97882.00;;;3.34;89.37
53340;BME280;46212;50.258;19.062;2022-12-07T11:55:50;97886.03;;;3.62;87.52
53340;BME280;46212;50.258;19.062;2022-12-07T12:03:34;97881.47;;;4.04;85.17
53340;BME280;46212;50.258;19.062;2022-12-07T12:06:02;97883.28;;;3.94;85.81
53340;BME280;46212;50.258;19.062;2022-12-07T12:08:32;97883.88;;;3.86;86.21
53340;BME280;46212;50.258;19.062;2022-12-07T12:11:06;97896.53;;;4.41;84.68
53340;BME280;46212;50.258;19.062;2022-12-07T12:16:45;97900.72;;;4.99;80.79
53340;BME280;46212;50.258;19.062;2022-12-07T12:19:41;97896.47;;;5.36;79.06
53340;BME280;46212;50.258;19.062;2022-12-07T12:24:40;97901.06;;;5.26;78.79
53340;BME280;46212;50.258;19.062;2022-12-07T12:29:53;97895.34;;;4.96;79.08
53340;BME280;46212;50.258;19.062;2022-12-07T12:32:33;97875.19;;;4.90;79.51
53340;BME280;46212;50.258;19.062;2022-12-07T12:35:29;97884.22;;;4.61;80.47
53340;BME280;46212;50.258;19.062;2022-12-07T12:38:31;97864.56;;;4.79;79.80
53340;BME280;46212;50.258;19.062;2022-12-07T12:40:58;97869.78;;;4.32;79.70
53340;BME280;46212;50.258;19.062;2022-12-07T12:43:50;97880.22;;;4.37;80.49
53340;BME280;46212;50.258;19.062;2022-12-07T12:49:13;97873.56;;;4.51;80.60
53340;BME280;46212;50.258;19.062;2022-12-07T12:51:41;97864.84;;;4.56;79.83
53340;BME280;46212;50.258;19.062;2022-12-07T12:54:31;97860.03;;;4.18;81.30
53340;BME280;46212;50.258;19.062;2022-12-07T12:57:24;97862.06;;;4.43;80.91
53340;BME280;46212;50.258;19.062;2022-12-07T13:04:53;97872.56;;;4.16;80.79
53340;BME280;46212;50.258;19.062;2022-12-07T13:15:36;97861.41;;;3.94;81.29
53340;BME280;46212;50.258;19.062;2022-12-07T13:23:18;97874.06;;;3.88;81.38
53340;BME280;46212;50.258;19.062;2022-12-07T13:25:49;97878.34;;;3.89;81.48
53340;BME280;46212;50.258;19.062;2022-12-07T13:28:20;97857.28;;;3.57;80.42
53340;BME280;46212;50.258;19.062;2022-12-07T13:30:54;97875.94;;;3.43;81.12
53340;BME280;46212;50.258;19.062;2022-12-07T13:33:24;97863.06;;;3.59;81.11
53340;BME280;46212;50.258;19.062;2022-12-07T13:35:55;97860.78;;;3.58;81.09
53340;BME280;46212;50.258;19.062;2022-12-07T13:38:28;97871.63;;;3.45;80.38
53340;BME280;46212;50.258;19.062;2022-12-07T13:43:30;97866.75;;;3.53;79.24
53340;BME280;46212;50.258;19.062;2022-12-07T13:45:59;97878.34;;;3.41;79.02
53340;BME280;46212;50.258;19.062;2022-12-07T13:48:35;97884.56;;;3.25;79.80
53340;BME280;46212;50.258;19.062;2022-12-07T13:51:03;97892.09;;;3.53;79.52
53340;BME280;46212;50.258;19.062;2022-12-07T13:53:29;97869.81;;;3.39;78.97
53340;BME280;46212;50.258;19.062;2022-12-07T13:55:57;97886.22;;;3.55;78.40
53340;BME280;46212;50.258;19.062;2022-12-07T13:58:24;97889.88;;;3.48;77.27
53340;BME280;46212;50.258;19.062;2022-12-07T14:00:50;97903.44;;;3.36;77.79
53340;BME280;46212;50.258;19.062;2022-12-07T14:05:43;97882.34;;;3.36;78.13
53340;BME280;46212;50.258;19.062;2022-12-07T14:10:55;97892.16;;;3.50;77.02
53340;BME280;46212;50.258;19.062;2022-12-07T14:13:33;97893.94;;;3.40;78.53
53340;BME280;46212;50.258;19.062;2022-12-07T14:16:03;97904.28;;;3.33;77.78
53340;BME280;46212;50.258;19.062;2022-12-07T14:18:41;97911.53;;;3.39;76.35
53340;BME280;46212;50.258;19.062;2022-12-07T14:23:36;97895.66;;;2.98;77.92
53340;BME280;46212;50.258;19.062;2022-12-07T14:26:28;97909.06;;;3.09;78.29
53340;BME280;46212;50.258;19.062;2022-12-07T14:29:28;97911.88;;;3.05;78.66
53340;BME280;46212;50.258;19.062;2022-12-07T14:31:56;97909.25;;;3.18;78.49
53340;BME280;46212;50.258;19.062;2022-12-07T14:34:23;97917.53;;;3.14;78.39
53340;BME280;46212;50.258;19.062;2022-12-07T14:36:49;97911.75;;;3.29;78.06
53340;BME280;46212;50.258;19.062;2022-12-07T14:39:15;97905.97;;;2.91;78.55
53340;BME280;46212;50.258;19.062;2022-12-07T14:41:41;97914.41;;;2.77;79.39
53340;BME280;46212;50.258;19.062;2022-12-07T14:44:15;97927.78;;;2.91;79.63
53340;BME280;46212;50.258;19.062;2022-12-07T14:46:41;97916.59;;;2.85;79.42
53340;BME280;46212;50.258;19.062;2022-12-07T14:49:06;97929.00;;;3.06;79.06
53340;BME280;46212;50.258;19.062;2022-12-07T14:51:32;97916.47;;;2.73;79.85
53340;BME280;46212;50.258;19.062;2022-12-07T14:53:58;97938.09;;;3.19;79.01
53340;BME280;46212;50.258;19.062;2022-12-07T14:56:25;97933.94;;;2.95;79.21
53340;BME280;46212;50.258;19.062;2022-12-07T14:58:51;97930.31;;;2.82;79.88
53340;BME280;46212;50.258;19.062;2022-12-07T15:01:16;97929.00;;;3.06;79.43
53340;BME280;46212;50.258;19.062;2022-12-07T15:03:41;97928.13;;;2.93;80.12
53340;BME280;46212;50.258;19.062;2022-12-07T15:06:07;97911.22;;;2.82;79.80
53340;BME280;46212;50.258;19.062;2022-12-07T15:08:33;97924.28;;;2.90;79.64